ADDS METAR Data INFO
IDs: Format: Raw Decoded Include TAF

Data at: 2054 UTC 26 May 2017

KSNK 262035Z AUTO 23008KT 180V260 10SM CLR 36/M01 A2984 RMK AO2 T03621015
KSNK 262015Z AUTO 25013G20KT 10SM CLR 36/M01 A2985 RMK AO2 T03611012
KSNK 261955Z AUTO 23011G16KT 200V260 10SM CLR 36/M02 A2985 RMK AO2 T03601016
KSNK 261935Z AUTO 28012G17KT 10SM CLR 36/M01 A2986 RMK AO2 T03591009
KSNK 261915Z AUTO 28010G18KT 250V310 10SM CLR 35/M01 A2986 RMK AO2 T03521008
KSNK 261855Z AUTO 30008KT 250V310 10SM CLR 35/M01 A2987 RMK AO2 T03511009
KSNK 261815Z AUTO 28010G17KT 10SM CLR 35/M01 A2988 RMK AO2 T03451009
KSNK 261755Z AUTO 31008G15KT 270V330 10SM CLR 34/M01 A2989 RMK AO2 T03391006
KSNK 261735Z AUTO 29010G16KT 10SM CLR 34/M01 A2989 RMK AO2 T03351011
KSNK 261715Z AUTO 32013KT 10SM CLR 34/M01 A2989 RMK AO2 T03351014
KSNK 261655Z AUTO 30010G17KT 10SM CLR 33/01 A2989 RMK AO2 T03340006
KSNK 261635Z AUTO 31011G16KT 10SM CLR 33/03 A2989 RMK AO2 T03250027
KSNK 261615Z AUTO 28011G15KT 10SM CLR 32/05 A2989 RMK AO2 T03170048
KSNK 261555Z AUTO 31010KT 10SM CLR 30/08 A2989 RMK AO2 T03040076
KSNK 261535Z AUTO 29008G15KT 10SM CLR 30/11 A2989 RMK AO2 T02970105
KSNK 261515Z AUTO 28009KT 10SM CLR 29/13 A2989 RMK AO2 T02850132
KSNK 261455Z AUTO 27007KT 10SM CLR 27/15 A2988 RMK AO2 T02730149
KSNK 261435Z AUTO 24006KT 10SM CLR 27/16 A2988 RMK AO2 T02670160
KSNK 261415Z AUTO 25006KT 10SM CLR 26/17 A2988 RMK AO2 T02560166
KSNK 261355Z AUTO 25005KT 10SM CLR 25/17 A2987 RMK AO2 T02480170
KSNK 261335Z AUTO 23005KT 10SM CLR 24/17 A2986 RMK AO2 T02420171
KSNK 261315Z AUTO 21006KT 10SM CLR 23/17 A2986 RMK AO2 T02300169
KSNK 261255Z AUTO 22005KT 10SM CLR 21/16 A2985 RMK AO2 T02130164
KSNK 261235Z AUTO 22004KT 10SM CLR 20/16 A2984 RMK AO2 T02010159
KSNK 261215Z AUTO 22005KT 10SM CLR 20/16 A2983 RMK AO2 T01990157
KSNK 261155Z AUTO 22006KT 10SM CLR 20/16 A2982 RMK AO2 T02020156
KSNK 261135Z AUTO 23006KT 10SM CLR 21/16 A2981 RMK AO2 T02050157
KSNK 261115Z AUTO 22004KT 10SM CLR 21/16 A2981 RMK AO2 T02100158
KSNK 261055Z AUTO 22003KT 10SM CLR 21/16 A2980 RMK AO2 T02140159
KSNK 261035Z AUTO 23004KT 10SM CLR 22/16 A2979 RMK AO2 T02190160
KSNK 261015Z AUTO 22006KT 10SM CLR 23/16 A2979 RMK AO2 T02250160
KSNK 260955Z AUTO 21006KT 10SM CLR 23/16 A2978 RMK AO2 T02320161
KSNK 260935Z AUTO 21007KT 10SM CLR 24/16 A2977 RMK AO2 T02350161
KSNK 260915Z AUTO 20007KT 10SM CLR 24/16 A2977 RMK AO2 T02370161
KSNK 260855Z AUTO 22007KT 10SM CLR 24/16 A2976 RMK AO2 T02370160
KSNK 260835Z AUTO 22006KT 10SM CLR 24/16 A2976 RMK AO2 T02430160
KSNK 260815Z AUTO 22006KT 10SM CLR 25/16 A2975 RMK AO2 T02460160
KSNK 260755Z AUTO 21007KT 10SM CLR 25/16 A2974 RMK AO2 T02480160
KSNK 260735Z AUTO 21009KT 10SM CLR 25/16 A2974 RMK AO2 T02520160
KSNK 260715Z AUTO 21010KT 10SM CLR 25/16 A2974 RMK AO2 T02530158
KSNK 260655Z AUTO 20011KT 10SM CLR 26/16 A2974 RMK AO2 T02550156
KSNK 260635Z AUTO 21009KT 10SM CLR 26/15 A2974 RMK AO2 T02550151
KSNK 260615Z AUTO 20007KT 10SM CLR 26/15 A2974 RMK AO2 T02570145
KSNK 260555Z AUTO 20009KT 10SM CLR 26/14 A2973 RMK AO2 T02620139
KSNK 260535Z AUTO 20009KT 10SM CLR 27/13 A2973 RMK AO2 LTG DSNT NE T02680131
KSNK 260515Z AUTO 20011KT 10SM CLR 27/12 A2972 RMK AO2 T02700119
KSNK 260455Z AUTO 20010KT 10SM CLR 26/08 A2972 RMK AO2 T02640083
KSNK 260435Z AUTO 20008KT 10SM CLR 27/05 A2972 RMK AO2 T02650050
KSNK 260415Z AUTO 21008KT 10SM CLR 27/01 A2971 RMK AO2 T02710012
KSNK 260355Z AUTO 19008KT 10SM CLR 27/00 A2970 RMK AO2 T02690000
KSNK 260335Z AUTO 21008KT 10SM CLR 28/00 A2968 RMK AO2 T02760002
KSNK 260315Z AUTO 21009KT 10SM CLR 28/01 A2967 RMK AO2 T02780010
KSNK 260255Z AUTO 22010KT 10SM CLR 28/02 A2966 RMK AO2 T02760015
KSNK 260235Z AUTO 21009KT 10SM CLR 28/01 A2965 RMK AO2 T02820012
KSNK 260215Z AUTO 21006KT 10SM CLR 30/01 A2964 RMK AO2 T02980007
KSNK 260155Z AUTO 21008KT 10SM CLR 32/01 A2963 RMK AO2 T03150006
KSNK 260135Z AUTO 20009KT 10SM CLR 33/01 A2962 RMK AO2 T03270009
KSNK 260115Z AUTO 21006KT 10SM CLR 34/00 A2961 RMK AO2 T03441001
KSNK 260055Z AUTO 22013KT 10SM CLR 36/M02 A2961 RMK AO2 T03621020
KSNK 260035Z AUTO 23015KT 10SM CLR 36/M03 A2960 RMK AO2 T03621030
KSNK 260015Z AUTO 24017G27KT 10SM CLR 37/M03 A2960 RMK AO2 T03661032
KSNK 252355Z AUTO 23023G31KT 10SM CLR 38/M03 A2960 RMK AO2 T03761026
KSNK 252335Z AUTO 23023G32KT 10SM CLR 37/M01 A2960 RMK AO2 T03731013
KSNK 252315Z AUTO 23020G25KT 10SM CLR 38/M01 A2960 RMK AO2 T03801008
KSNK 252255Z AUTO 24023G29KT 10SM CLR 38/M01 A2960 RMK AO2 T03801006
KSNK 252235Z AUTO 24019G27KT 10SM CLR 38/00 A2960 RMK AO2 T03840002
KSNK 252215Z AUTO 24020G26KT 10SM CLR 39/00 A2961 RMK AO2 T03850000
KSNK 252155Z AUTO 23024G33KT 10SM CLR 39/00 A2961 RMK AO2 T03901005
KSNK 252135Z AUTO 22022G34KT 10SM CLR 39/00 A2961 RMK AO2 T03901001
KSNK 252115Z AUTO 23013G20KT 10SM CLR 39/00 A2961 RMK AO2 T03900003
KSNK 252055Z AUTO 24021G28KT 10SM CLR 39/00 A2962 RMK AO2 T03910003
KSNK 252035Z AUTO 25016G22KT 10SM CLR 39/00 A2962 RMK AO2 T03860003
KSNK 252015Z AUTO 25018G23KT 10SM CLR 39/01 A2963 RMK AO2 T03860008
KSNK 251955Z AUTO 25014G21KT 10SM CLR 38/01 A2963 RMK AO2 T03840006
KSNK 251935Z AUTO 26016G23KT 10SM CLR 38/02 A2964 RMK AO2 T03810017
KSNK 251915Z AUTO 26015G20KT 10SM CLR 38/02 A2964 RMK AO2 T03750020
KSNK 251855Z AUTO 26013G26KT 10SM CLR 37/03 A2965 RMK AO2 T03690029
KSNK 251835Z AUTO 24016G20KT 10SM CLR 37/04 A2966 RMK AO2 T03650040
KSNK 251815Z AUTO 25016G21KT 10SM CLR 36/04 A2967 RMK AO2 T03560044
KSNK 251755Z AUTO 26014G18KT 10SM CLR 34/05 A2967 RMK AO2 T03440051
KSNK 251735Z AUTO 24014G20KT 10SM CLR 33/06 A2967 RMK AO2 T03340058
KSNK 251715Z AUTO 23016G21KT 10SM CLR 32/07 A2967 RMK AO2 T03190070
KSNK 251655Z AUTO 24015G19KT 10SM CLR 31/07 A2968 RMK AO2 T03090073
KSNK 251635Z AUTO 23016G22KT 10SM CLR 30/08 A2968 RMK AO2 T03020077
KSNK 251615Z AUTO 23016G21KT 10SM CLR 29/08 A2968 RMK AO2 T02920078
KSNK 251555Z AUTO 21015G23KT 10SM CLR 28/08 A2968 RMK AO2 T02840079
KSNK 251535Z AUTO 22014G19KT 10SM CLR 27/09 A2968 RMK AO2 T02730085
KSNK 251515Z AUTO 22013KT 10SM CLR 25/09 A2968 RMK AO2 T02530089
KSNK 251455Z AUTO 22012KT 10SM CLR 24/09 A2969 RMK AO2 T02360088
KSNK 251435Z AUTO 21015KT 10SM CLR 22/09 A2969 RMK AO2 T02210086
KSNK 251415Z AUTO 21011G14KT 10SM CLR 21/08 A2970 RMK AO2 T02110084
KSNK 251355Z AUTO 20010G15KT 10SM CLR 20/08 A2969 RMK AO2 T02000082
KSNK 251335Z AUTO 19010KT 10SM CLR 19/08 A2968 RMK AO2 T01880081
KSNK 251315Z AUTO 19010KT 10SM CLR 18/08 A2968 RMK AO2 T01800078
KSNK 251255Z AUTO 19009KT 10SM CLR 17/08 A2968 RMK AO2 T01740076
KSNK 251235Z AUTO 18010KT 10SM CLR 17/08 A2967 RMK AO2 T01680075
KSNK 251215Z AUTO 18011KT 10SM CLR 17/08 A2967 RMK AO2 T01650075
KSNK 251155Z AUTO 19009KT 10SM CLR 16/08 A2967 RMK AO2 T01620075
KSNK 251135Z AUTO 19008KT 10SM CLR 16/08 A2967 RMK AO2 T01600075
KSNK 251115Z AUTO 19010KT 10SM CLR 16/08 A2966 RMK AO2 T01620075
KSNK 251055Z AUTO 19009KT 10SM CLR 17/08 A2966 RMK AO2 T01660075
KSNK 251035Z AUTO 19010KT 10SM CLR 17/08 A2966 RMK AO2 T01700075
KSNK 251015Z AUTO 19010KT 10SM CLR 17/08 A2966 RMK AO2 T01720075
KSNK 250955Z AUTO 19010KT 10SM CLR 18/07 A2966 RMK AO2 T01760073
KSNK 250935Z AUTO 18011KT 10SM CLR 18/07 A2966 RMK AO2 T01800072
KSNK 250915Z AUTO 19011KT 10SM CLR 18/07 A2966 RMK AO2 T01820071
KSNK 250855Z AUTO 18011KT 10SM CLR 18/07 A2966 RMK AO2 T01830072


Page loaded:  20:54 UTC  |   01:54 PM Pacific  |   02:54 PM Mountain  |   03:54 PM Central  |   04:54 PM Eastern

 

ADVISORIES

FORECASTS

FORECASTS

OBSERVATIONS

USER TOOLS

ABOUT US